This is the latest recevied weather packets stored in our database for station/object K1RFS. If no packets are shown the sender has not sent any weather packets the latest 10 day(s).
| Time | Temp. | Humidity | Pressure | Rain* | Wind** | Luminosity | Snow |
|---|---|---|---|---|---|---|---|
| 1787449028 | 25.56° C | 57% | 1004.4 hPa | 0 mm | - | 9 W/m² | - |
| 1787448723 | 26.11° C | 58% | 1004.5 hPa | 0 mm | - | 9 W/m² | - |
| 1787448420 | 26.11° C | 56% | 1004.6 hPa | 0 mm | - | 11 W/m² | - |
| 1787448116 | 26.67° C | 49% | 1004.4 hPa | 0 mm | - | 13 W/m² | - |
| 1787447815 | 26.67° C | 44% | 1004.4 hPa | 0 mm | - | 16 W/m² | - |
| 1787447509 | 26.67° C | 43% | 1004.4 hPa | 0 mm | - | 20 W/m² | - |
| 1787447206 | 26.67° C | 42% | 1004.4 hPa | 0 mm | - | 21 W/m² | - |
| 1787446903 | 26.67° C | 46% | 1004.5 hPa | 0 mm | - | 23 W/m² | - |
| 1787446602 | 26.67° C | 46% | 1004.6 hPa | 0 mm | - | 35 W/m² | - |
| 1787446298 | 26.67° C | 47% | 1004.6 hPa | 0 mm | - | 36 W/m² | - |
| 1787445994 | 26.67° C | 47% | 1004.5 hPa | 0 mm | - | 37 W/m² | - |
| 1787445690 | 26.67° C | 48% | 1004.8 hPa | 0 mm | - | 33 W/m² | - |
| 1787445386 | 27.22° C | 47% | 1004.6 hPa | 0 mm | - | 31 W/m² | - |
| 1787445081 | 26.67° C | 48% | 1004.7 hPa | 0 mm | - | 29 W/m² | - |
| 1787444776 | 27.22° C | 50% | 1004.6 hPa | 0 mm | - | 30 W/m² | - |
| 1787444474 | 27.22° C | 47% | 1004.8 hPa | 0 mm | - | 27 W/m² | - |
| 1787444168 | 27.22° C | 44% | 1004.8 hPa | 0 mm | - | 32 W/m² | - |
| 1787443862 | 27.22° C | 45% | 1004.8 hPa | 0 mm | - | 29 W/m² | - |
| 1787443561 | 27.22° C | 47% | 1004.7 hPa | 0 mm | - | 52 W/m² | - |
| 1787443256 | 27.22° C | 48% | 1004.7 hPa | 0 mm | - | 66 W/m² | - |
| 1787442950 | 27.78° C | 48% | 1004.8 hPa | 0 mm | - | 60 W/m² | - |
| 1787442647 | 27.78° C | 44% | 1004.8 hPa | 0 mm | - | 65 W/m² | - |
| 1787442343 | 27.78° C | 42% | 1005.2 hPa | 0 mm | - | 68 W/m² | - |
| 1787442042 | 27.78° C | 40% | 1005.2 hPa | 0 mm | - | 70 W/m² | - |
| 1787441737 | 27.78° C | 48% | 1004.9 hPa | 0 mm | - | 127 W/m² | - |
* Rain latest hour (hover to see other rain measurements)
** Current wind speed in m/s (hover to see current wind gust speed)